sensor_id;sensor_type;location;lat;lon;timestamp;temperature;humidity
20091;DHT22;10205;49.678;6.560;2023-08-01T00:00:27;22.10;67.40
20091;DHT22;10205;49.678;6.560;2023-08-01T00:02:57;22.10;67.30
20091;DHT22;10205;49.678;6.560;2023-08-01T00:05:25;22.10;67.90
20091;DHT22;10205;49.678;6.560;2023-08-01T00:07:52;22.10;67.40
20091;DHT22;10205;49.678;6.560;2023-08-01T00:10:21;22.10;67.40
20091;DHT22;10205;49.678;6.560;2023-08-01T00:12:49;22.10;67.20
20091;DHT22;10205;49.678;6.560;2023-08-01T00:15:18;22.10;67.20
20091;DHT22;10205;49.678;6.560;2023-08-01T00:17:47;22.10;67.10
20091;DHT22;10205;49.678;6.560;2023-08-01T00:20:16;22.10;67.60
20091;DHT22;10205;49.678;6.560;2023-08-01T00:22:44;22.10;67.30
20091;DHT22;10205;49.678;6.560;2023-08-01T00:25:14;22.10;67.60
20091;DHT22;10205;49.678;6.560;2023-08-01T00:27:42;22.10;67.80
20091;DHT22;10205;49.678;6.560;2023-08-01T00:30:10;22.10;67.70
20091;DHT22;10205;49.678;6.560;2023-08-01T00:32:37;22.10;67.60
20091;DHT22;10205;49.678;6.560;2023-08-01T00:35:09;22.00;67.50
20091;DHT22;10205;49.678;6.560;2023-08-01T00:37:39;22.00;67.80
20091;DHT22;10205;49.678;6.560;2023-08-01T00:40:07;22.00;67.80
20091;DHT22;10205;49.678;6.560;2023-08-01T00:42:38;22.00;68.90
20091;DHT22;10205;49.678;6.560;2023-08-01T00:45:08;22.00;67.70
20091;DHT22;10205;49.678;6.560;2023-08-01T00:47:38;21.90;68.00
20091;DHT22;10205;49.678;6.560;2023-08-01T00:50:09;21.90;68.10
20091;DHT22;10205;49.678;6.560;2023-08-01T00:52:36;21.90;68.10
20091;DHT22;10205;49.678;6.560;2023-08-01T00:55:06;21.90;68.10
20091;DHT22;10205;49.678;6.560;2023-08-01T00:57:34;21.90;68.80
20091;DHT22;10205;49.678;6.560;2023-08-01T01:00:03;21.90;68.40
20091;DHT22;10205;49.678;6.560;2023-08-01T01:02:31;21.80;68.30
20091;DHT22;10205;49.678;6.560;2023-08-01T01:05:01;21.80;68.20
20091;DHT22;10205;49.678;6.560;2023-08-01T01:07:33;21.80;68.80
20091;DHT22;10205;49.678;6.560;2023-08-01T01:10:02;21.80;68.60
20091;DHT22;10205;49.678;6.560;2023-08-01T01:12:31;21.80;68.40
20091;DHT22;10205;49.678;6.560;2023-08-01T01:14:59;21.80;68.90
20091;DHT22;10205;49.678;6.560;2023-08-01T01:17:27;21.70;69.60
20091;DHT22;10205;49.678;6.560;2023-08-01T01:19:54;21.70;68.60
20091;DHT22;10205;49.678;6.560;2023-08-01T01:22:25;21.80;68.60
20091;DHT22;10205;49.678;6.560;2023-08-01T01:24:54;21.70;69.10
20091;DHT22;10205;49.678;6.560;2023-08-01T01:27:23;21.80;69.00
20091;DHT22;10205;49.678;6.560;2023-08-01T01:29:52;21.70;68.80
20091;DHT22;10205;49.678;6.560;2023-08-01T01:32:20;21.70;68.90
20091;DHT22;10205;49.678;6.560;2023-08-01T01:34:48;21.70;69.20
20091;DHT22;10205;49.678;6.560;2023-08-01T01:37:19;21.70;69.00
20091;DHT22;10205;49.678;6.560;2023-08-01T01:39:47;21.60;69.20
20091;DHT22;10205;49.678;6.560;2023-08-01T01:42:15;21.60;69.60
20091;DHT22;10205;49.678;6.560;2023-08-01T01:44:43;21.60;69.40
20091;DHT22;10205;49.678;6.560;2023-08-01T01:47:11;21.60;69.30
20091;DHT22;10205;49.678;6.560;2023-08-01T01:49:41;21.60;69.20
20091;DHT22;10205;49.678;6.560;2023-08-01T01:52:08;21.60;69.40
20091;DHT22;10205;49.678;6.560;2023-08-01T01:54:37;21.60;69.40
20091;DHT22;10205;49.678;6.560;2023-08-01T01:57:07;21.60;69.40
20091;DHT22;10205;49.678;6.560;2023-08-01T01:59:36;21.60;69.70
20091;DHT22;10205;49.678;6.560;2023-08-01T02:02:03;21.60;69.60
20091;DHT22;10205;49.678;6.560;2023-08-01T02:04:31;21.60;69.30
20091;DHT22;10205;49.678;6.560;2023-08-01T02:06:59;21.60;69.30
20091;DHT22;10205;49.678;6.560;2023-08-01T02:09:27;21.60;69.50
20091;DHT22;10205;49.678;6.560;2023-08-01T02:11:54;21.60;69.40
20091;DHT22;10205;49.678;6.560;2023-08-01T02:14:23;21.60;69.30
20091;DHT22;10205;49.678;6.560;2023-08-01T02:16:51;21.60;69.40
20091;DHT22;10205;49.678;6.560;2023-08-01T02:19:18;21.60;69.30
20091;DHT22;10205;49.678;6.560;2023-08-01T02:21:46;21.60;69.30
20091;DHT22;10205;49.678;6.560;2023-08-01T02:24:15;21.60;69.20
20091;DHT22;10205;49.678;6.560;2023-08-01T02:26:42;21.60;69.20
20091;DHT22;10205;49.678;6.560;2023-08-01T02:29:09;21.60;69.40
20091;DHT22;10205;49.678;6.560;2023-08-01T02:31:38;21.60;69.50
20091;DHT22;10205;49.678;6.560;2023-08-01T02:34:05;21.60;69.40
20091;DHT22;10205;49.678;6.560;2023-08-01T02:36:33;21.60;69.40
20091;DHT22;10205;49.678;6.560;2023-08-01T02:39:00;21.60;69.50
20091;DHT22;10205;49.678;6.560;2023-08-01T02:41:28;21.60;69.50
20091;DHT22;10205;49.678;6.560;2023-08-01T02:43:55;21.50;69.60
20091;DHT22;10205;49.678;6.560;2023-08-01T02:46:23;21.60;69.60
20091;DHT22;10205;49.678;6.560;2023-08-01T02:48:55;21.60;69.70
20091;DHT22;10205;49.678;6.560;2023-08-01T02:51:23;21.50;69.60
20091;DHT22;10205;49.678;6.560;2023-08-01T02:53:50;21.60;69.50
20091;DHT22;10205;49.678;6.560;2023-08-01T02:56:18;21.50;69.50
20091;DHT22;10205;49.678;6.560;2023-08-01T02:58:45;21.60;69.60
20091;DHT22;10205;49.678;6.560;2023-08-01T03:01:13;21.60;69.80
20091;DHT22;10205;49.678;6.560;2023-08-01T03:03:40;21.50;69.60
20091;DHT22;10205;49.678;6.560;2023-08-01T03:06:09;21.60;69.70
20091;DHT22;10205;49.678;6.560;2023-08-01T03:08:38;21.50;69.70
20091;DHT22;10205;49.678;6.560;2023-08-01T03:11:06;21.50;69.70
20091;DHT22;10205;49.678;6.560;2023-08-01T03:13:34;21.50;69.80
20091;DHT22;10205;49.678;6.560;2023-08-01T03:16:05;21.60;69.70
20091;DHT22;10205;49.678;6.560;2023-08-01T03:18:32;21.50;69.90
20091;DHT22;10205;49.678;6.560;2023-08-01T03:21:01;21.50;69.80
20091;DHT22;10205;49.678;6.560;2023-08-01T03:23:31;21.50;70.10
20091;DHT22;10205;49.678;6.560;2023-08-01T03:25:58;21.50;70.10
20091;DHT22;10205;49.678;6.560;2023-08-01T03:28:27;21.50;69.90
20091;DHT22;10205;49.678;6.560;2023-08-01T03:30:56;21.50;70.10
20091;DHT22;10205;49.678;6.560;2023-08-01T03:33:24;21.40;70.00
20091;DHT22;10205;49.678;6.560;2023-08-01T03:35:52;21.40;70.20
20091;DHT22;10205;49.678;6.560;2023-08-01T03:38:19;21.40;70.00
20091;DHT22;10205;49.678;6.560;2023-08-01T03:40:52;21.40;70.00
20091;DHT22;10205;49.678;6.560;2023-08-01T03:43:20;21.40;70.30
20091;DHT22;10205;49.678;6.560;2023-08-01T03:45:50;21.40;70.10
20091;DHT22;10205;49.678;6.560;2023-08-01T03:48:18;21.40;70.30
20091;DHT22;10205;49.678;6.560;2023-08-01T03:50:51;21.40;70.00
20091;DHT22;10205;49.678;6.560;2023-08-01T03:53:18;21.50;70.40
20091;DHT22;10205;49.678;6.560;2023-08-01T03:55:47;21.40;70.20
20091;DHT22;10205;49.678;6.560;2023-08-01T03:58:16;21.40;70.20
20091;DHT22;10205;49.678;6.560;2023-08-01T04:00:43;21.40;70.10
20091;DHT22;10205;49.678;6.560;2023-08-01T04:03:11;21.40;70.10
20091;DHT22;10205;49.678;6.560;2023-08-01T04:05:38;21.40;70.10
20091;DHT22;10205;49.678;6.560;2023-08-01T04:08:06;21.40;70.40
20091;DHT22;10205;49.678;6.560;2023-08-01T04:10:34;21.40;70.50
20091;DHT22;10205;49.678;6.560;2023-08-01T04:13:03;21.30;70.30
20091;DHT22;10205;49.678;6.560;2023-08-01T04:15:38;21.30;70.50
20091;DHT22;10205;49.678;6.560;2023-08-01T04:18:06;21.30;70.70
20091;DHT22;10205;49.678;6.560;2023-08-01T04:20:33;21.30;70.40
20091;DHT22;10205;49.678;6.560;2023-08-01T04:23:01;21.30;70.50
20091;DHT22;10205;49.678;6.560;2023-08-01T04:25:28;21.30;70.50
20091;DHT22;10205;49.678;6.560;2023-08-01T04:27:55;21.30;70.50
20091;DHT22;10205;49.678;6.560;2023-08-01T04:30:27;21.30;70.50
20091;DHT22;10205;49.678;6.560;2023-08-01T04:32:54;21.30;70.90
20091;DHT22;10205;49.678;6.560;2023-08-01T04:35:22;21.30;70.40
20091;DHT22;10205;49.678;6.560;2023-08-01T04:37:50;21.30;70.40
20091;DHT22;10205;49.678;6.560;2023-08-01T04:40:17;21.30;70.70
20091;DHT22;10205;49.678;6.560;2023-08-01T04:42:46;21.30;70.50
20091;DHT22;10205;49.678;6.560;2023-08-01T04:45:13;21.30;70.50
20091;DHT22;10205;49.678;6.560;2023-08-01T04:47:42;21.30;70.40
20091;DHT22;10205;49.678;6.560;2023-08-01T04:50:10;21.30;70.60
20091;DHT22;10205;49.678;6.560;2023-08-01T04:52:37;21.30;70.30
20091;DHT22;10205;49.678;6.560;2023-08-01T04:55:07;21.30;70.40
20091;DHT22;10205;49.678;6.560;2023-08-01T04:57:35;21.30;70.40
20091;DHT22;10205;49.678;6.560;2023-08-01T05:00:02;21.40;70.30
20091;DHT22;10205;49.678;6.560;2023-08-01T05:02:30;21.40;70.30
20091;DHT22;10205;49.678;6.560;2023-08-01T05:05:01;21.40;70.00
20091;DHT22;10205;49.678;6.560;2023-08-01T05:07:29;21.40;70.40
20091;DHT22;10205;49.678;6.560;2023-08-01T05:09:57;21.40;70.00
20091;DHT22;10205;49.678;6.560;2023-08-01T05:12:24;21.40;70.30
20091;DHT22;10205;49.678;6.560;2023-08-01T05:14:52;21.40;70.30
20091;DHT22;10205;49.678;6.560;2023-08-01T05:17:20;21.40;70.00
20091;DHT22;10205;49.678;6.560;2023-08-01T05:19:48;21.50;70.00
20091;DHT22;10205;49.678;6.560;2023-08-01T05:22:17;21.50;69.90
20091;DHT22;10205;49.678;6.560;2023-08-01T05:24:46;21.50;70.40
20091;DHT22;10205;49.678;6.560;2023-08-01T05:27:13;21.50;70.00
20091;DHT22;10205;49.678;6.560;2023-08-01T05:29:42;21.50;69.80
20091;DHT22;10205;49.678;6.560;2023-08-01T05:32:09;21.50;69.60
20091;DHT22;10205;49.678;6.560;2023-08-01T05:34:37;21.50;69.60
20091;DHT22;10205;49.678;6.560;2023-08-01T05:37:06;21.50;69.60
20091;DHT22;10205;49.678;6.560;2023-08-01T05:39:35;21.50;70.00
20091;DHT22;10205;49.678;6.560;2023-08-01T05:42:03;21.50;70.70
20091;DHT22;10205;49.678;6.560;2023-08-01T05:44:34;21.50;70.40
20091;DHT22;10205;49.678;6.560;2023-08-01T05:47:02;21.60;70.00
20091;DHT22;10205;49.678;6.560;2023-08-01T05:49:29;21.50;69.90
20091;DHT22;10205;49.678;6.560;2023-08-01T05:51:57;21.60;69.70
20091;DHT22;10205;49.678;6.560;2023-08-01T05:54:24;21.50;69.60
20091;DHT22;10205;49.678;6.560;2023-08-01T05:56:54;21.50;69.50
20091;DHT22;10205;49.678;6.560;2023-08-01T05:59:22;21.50;69.60
20091;DHT22;10205;49.678;6.560;2023-08-01T06:01:50;21.50;69.50
20091;DHT22;10205;49.678;6.560;2023-08-01T06:04:17;21.50;69.50
20091;DHT22;10205;49.678;6.560;2023-08-01T06:06:45;21.50;69.50
20091;DHT22;10205;49.678;6.560;2023-08-01T06:09:13;21.40;69.50
20091;DHT22;10205;49.678;6.560;2023-08-01T06:11:40;21.40;69.60
20091;DHT22;10205;49.678;6.560;2023-08-01T06:14:10;21.40;69.80
20091;DHT22;10205;49.678;6.560;2023-08-01T06:16:37;21.40;69.80
20091;DHT22;10205;49.678;6.560;2023-08-01T06:19:05;21.40;69.50
20091;DHT22;10205;49.678;6.560;2023-08-01T06:21:32;21.40;69.50
20091;DHT22;10205;49.678;6.560;2023-08-01T06:24:00;21.40;69.60
20091;DHT22;10205;49.678;6.560;2023-08-01T06:26:29;21.40;69.60
20091;DHT22;10205;49.678;6.560;2023-08-01T06:28:56;21.30;69.60
20091;DHT22;10205;49.678;6.560;2023-08-01T06:31:26;21.30;69.50
20091;DHT22;10205;49.678;6.560;2023-08-01T06:33:53;21.40;69.60
20091;DHT22;10205;49.678;6.560;2023-08-01T06:36:21;21.40;69.60
20091;DHT22;10205;49.678;6.560;2023-08-01T06:38:49;21.40;69.50
20091;DHT22;10205;49.678;6.560;2023-08-01T06:41:16;21.40;69.60
20091;DHT22;10205;49.678;6.560;2023-08-01T06:43:44;21.40;69.60
20091;DHT22;10205;49.678;6.560;2023-08-01T06:46:12;21.40;69.60
20091;DHT22;10205;49.678;6.560;2023-08-01T06:48:41;21.40;69.60
20091;DHT22;10205;49.678;6.560;2023-08-01T06:51:09;21.40;69.50
20091;DHT22;10205;49.678;6.560;2023-08-01T06:53:37;21.40;69.50
20091;DHT22;10205;49.678;6.560;2023-08-01T06:56:04;21.40;69.60
20091;DHT22;10205;49.678;6.560;2023-08-01T06:58:32;21.40;69.50
20091;DHT22;10205;49.678;6.560;2023-08-01T07:01:00;21.40;69.40
20091;DHT22;10205;49.678;6.560;2023-08-01T07:03:28;21.30;69.20
20091;DHT22;10205;49.678;6.560;2023-08-01T07:05:58;21.40;69.30
20091;DHT22;10205;49.678;6.560;2023-08-01T07:08:25;21.40;69.20
20091;DHT22;10205;49.678;6.560;2023-08-01T07:10:53;21.40;69.10
20091;DHT22;10205;49.678;6.560;2023-08-01T07:13:20;21.40;69.10
20091;DHT22;10205;49.678;6.560;2023-08-01T07:15:51;21.40;68.80
20091;DHT22;10205;49.678;6.560;2023-08-01T07:18:19;21.40;69.00
20091;DHT22;10205;49.678;6.560;2023-08-01T07:20:46;21.40;69.00
20091;DHT22;10205;49.678;6.560;2023-08-01T07:23:15;21.40;69.00
20091;DHT22;10205;49.678;6.560;2023-08-01T07:25:43;21.40;68.90
20091;DHT22;10205;49.678;6.560;2023-08-01T07:28:11;21.40;68.80
20091;DHT22;10205;49.678;6.560;2023-08-01T07:30:38;21.40;68.70
20091;DHT22;10205;49.678;6.560;2023-08-01T07:33:06;21.40;68.80
20091;DHT22;10205;49.678;6.560;2023-08-01T07:35:34;21.40;68.80
20091;DHT22;10205;49.678;6.560;2023-08-01T07:38:02;21.40;68.60
20091;DHT22;10205;49.678;6.560;2023-08-01T07:40:31;21.50;68.70
20091;DHT22;10205;49.678;6.560;2023-08-01T07:42:59;21.50;68.70
20091;DHT22;10205;49.678;6.560;2023-08-01T07:45:27;21.50;68.90
20091;DHT22;10205;49.678;6.560;2023-08-01T07:47:54;21.50;68.80
20091;DHT22;10205;49.678;6.560;2023-08-01T07:50:22;21.60;68.70
20091;DHT22;10205;49.678;6.560;2023-08-01T07:52:49;21.60;68.60
20091;DHT22;10205;49.678;6.560;2023-08-01T07:55:17;21.60;68.40
20091;DHT22;10205;49.678;6.560;2023-08-01T07:57:48;21.60;68.40
20091;DHT22;10205;49.678;6.560;2023-08-01T08:00:16;21.70;68.30
20091;DHT22;10205;49.678;6.560;2023-08-01T08:02:45;21.70;68.30
20091;DHT22;10205;49.678;6.560;2023-08-01T08:05:13;21.70;68.30
20091;DHT22;10205;49.678;6.560;2023-08-01T08:07:40;21.70;68.20
20091;DHT22;10205;49.678;6.560;2023-08-01T08:10:08;21.70;68.10
20091;DHT22;10205;49.678;6.560;2023-08-01T08:12:37;21.80;68.30
20091;DHT22;10205;49.678;6.560;2023-08-01T08:15:08;21.80;68.20
20091;DHT22;10205;49.678;6.560;2023-08-01T08:17:36;21.80;68.00
20091;DHT22;10205;49.678;6.560;2023-08-01T08:20:04;21.80;67.80
20091;DHT22;10205;49.678;6.560;2023-08-01T08:22:33;21.80;67.60
20091;DHT22;10205;49.678;6.560;2023-08-01T08:25:01;21.80;67.70
20091;DHT22;10205;49.678;6.560;2023-08-01T08:27:29;21.80;67.60
20091;DHT22;10205;49.678;6.560;2023-08-01T08:29:56;21.80;67.70
20091;DHT22;10205;49.678;6.560;2023-08-01T08:32:26;21.80;67.70
20091;DHT22;10205;49.678;6.560;2023-08-01T08:34:54;21.90;68.00
20091;DHT22;10205;49.678;6.560;2023-08-01T08:37:21;21.90;67.80
20091;DHT22;10205;49.678;6.560;2023-08-01T08:39:49;21.90;67.80
20091;DHT22;10205;49.678;6.560;2023-08-01T08:42:18;21.90;67.60
20091;DHT22;10205;49.678;6.560;2023-08-01T08:44:49;22.00;67.50
20091;DHT22;10205;49.678;6.560;2023-08-01T08:47:26;22.00;67.30
20091;DHT22;10205;49.678;6.560;2023-08-01T08:49:56;22.00;67.20
20091;DHT22;10205;49.678;6.560;2023-08-01T08:52:24;22.10;67.30
20091;DHT22;10205;49.678;6.560;2023-08-01T08:54:53;22.00;67.20
20091;DHT22;10205;49.678;6.560;2023-08-01T08:57:24;22.10;67.00
20091;DHT22;10205;49.678;6.560;2023-08-01T08:59:52;22.10;67.10
20091;DHT22;10205;49.678;6.560;2023-08-01T09:02:21;22.10;67.10
20091;DHT22;10205;49.678;6.560;2023-08-01T09:04:50;22.20;67.30
20091;DHT22;10205;49.678;6.560;2023-08-01T09:07:20;22.20;67.10
20091;DHT22;10205;49.678;6.560;2023-08-01T09:09:52;22.20;66.70
20091;DHT22;10205;49.678;6.560;2023-08-01T09:12:21;22.30;66.90
20091;DHT22;10205;49.678;6.560;2023-08-01T09:14:50;22.30;66.10
20091;DHT22;10205;49.678;6.560;2023-08-01T09:17:19;22.30;66.30
20091;DHT22;10205;49.678;6.560;2023-08-01T09:22:42;22.40;65.80
20091;DHT22;10205;49.678;6.560;2023-08-01T09:25:11;22.40;65.70
20091;DHT22;10205;49.678;6.560;2023-08-01T09:27:39;22.50;66.10
20091;DHT22;10205;49.678;6.560;2023-08-01T09:30:09;22.50;65.90
20091;DHT22;10205;49.678;6.560;2023-08-01T09:32:51;22.50;65.30
20091;DHT22;10205;49.678;6.560;2023-08-01T09:35:21;22.60;64.60
20091;DHT22;10205;49.678;6.560;2023-08-01T09:37:49;22.60;65.10
20091;DHT22;10205;49.678;6.560;2023-08-01T09:40:17;22.70;65.70
20091;DHT22;10205;49.678;6.560;2023-08-01T09:42:46;22.70;65.70
20091;DHT22;10205;49.678;6.560;2023-08-01T09:45:14;22.80;65.80
20091;DHT22;10205;49.678;6.560;2023-08-01T09:47:44;22.80;65.80
20091;DHT22;10205;49.678;6.560;2023-08-01T09:50:21;22.90;65.60
20091;DHT22;10205;49.678;6.560;2023-08-01T09:52:50;23.00;65.40
20091;DHT22;10205;49.678;6.560;2023-08-01T09:55:20;23.10;65.70
20091;DHT22;10205;49.678;6.560;2023-08-01T09:57:55;23.10;65.50
20091;DHT22;10205;49.678;6.560;2023-08-01T10:00:25;23.20;65.20
20091;DHT22;10205;49.678;6.560;2023-08-01T10:02:55;23.30;65.40
20091;DHT22;10205;49.678;6.560;2023-08-01T10:05:29;23.40;65.20
20091;DHT22;10205;49.678;6.560;2023-08-01T10:07:59;23.40;64.80
20091;DHT22;10205;49.678;6.560;2023-08-01T10:10:29;23.50;65.10
20091;DHT22;10205;49.678;6.560;2023-08-01T10:12:57;23.50;65.10
20091;DHT22;10205;49.678;6.560;2023-08-01T10:15:25;23.60;65.10
20091;DHT22;10205;49.678;6.560;2023-08-01T10:17:55;23.70;65.00
20091;DHT22;10205;49.678;6.560;2023-08-01T10:20:23;23.70;64.80
20091;DHT22;10205;49.678;6.560;2023-08-01T10:22:53;23.80;64.80
20091;DHT22;10205;49.678;6.560;2023-08-01T10:25:22;23.80;64.70
20091;DHT22;10205;49.678;6.560;2023-08-01T10:27:58;23.90;64.50
20091;DHT22;10205;49.678;6.560;2023-08-01T10:30:27;24.00;64.10
20091;DHT22;10205;49.678;6.560;2023-08-01T10:32:55;24.00;63.80
20091;DHT22;10205;49.678;6.560;2023-08-01T10:35:34;24.10;63.80
20091;DHT22;10205;49.678;6.560;2023-08-01T10:38:09;24.20;63.30
20091;DHT22;10205;49.678;6.560;2023-08-01T10:40:39;24.20;62.00
20091;DHT22;10205;49.678;6.560;2023-08-01T10:43:19;24.20;62.80
20091;DHT22;10205;49.678;6.560;2023-08-01T10:46:00;24.30;62.70
20091;DHT22;10205;49.678;6.560;2023-08-01T10:48:29;24.40;62.40
20091;DHT22;10205;49.678;6.560;2023-08-01T10:50:57;24.40;62.80
20091;DHT22;10205;49.678;6.560;2023-08-01T10:53:37;24.40;62.50
20091;DHT22;10205;49.678;6.560;2023-08-01T10:56:06;24.50;62.50
20091;DHT22;10205;49.678;6.560;2023-08-01T10:58:34;24.60;62.60
20091;DHT22;10205;49.678;6.560;2023-08-01T11:01:02;24.60;62.50
20091;DHT22;10205;49.678;6.560;2023-08-01T11:03:37;24.70;62.20
20091;DHT22;10205;49.678;6.560;2023-08-01T11:06:05;24.80;61.40
20091;DHT22;10205;49.678;6.560;2023-08-01T11:08:39;24.80;61.80
20091;DHT22;10205;49.678;6.560;2023-08-01T11:11:13;24.90;60.50
20091;DHT22;10205;49.678;6.560;2023-08-01T11:13:41;24.90;61.00
20091;DHT22;10205;49.678;6.560;2023-08-01T11:16:16;25.00;61.30
20091;DHT22;10205;49.678;6.560;2023-08-01T11:18:44;25.10;60.90
20091;DHT22;10205;49.678;6.560;2023-08-01T11:21:12;25.10;60.90
20091;DHT22;10205;49.678;6.560;2023-08-01T11:23:41;25.20;61.00
20091;DHT22;10205;49.678;6.560;2023-08-01T11:26:09;25.20;60.30
20091;DHT22;10205;49.678;6.560;2023-08-01T11:28:38;25.30;59.80
20091;DHT22;10205;49.678;6.560;2023-08-01T11:31:16;25.30;60.10
20091;DHT22;10205;49.678;6.560;2023-08-01T11:33:55;25.40;59.30
20091;DHT22;10205;49.678;6.560;2023-08-01T11:36:26;25.40;59.20
20091;DHT22;10205;49.678;6.560;2023-08-01T11:38:57;25.50;58.90
20091;DHT22;10205;49.678;6.560;2023-08-01T11:41:28;25.50;59.30
20091;DHT22;10205;49.678;6.560;2023-08-01T11:43:56;25.60;59.50
20091;DHT22;10205;49.678;6.560;2023-08-01T11:46:31;25.60;59.20
20091;DHT22;10205;49.678;6.560;2023-08-01T11:49:02;25.70;59.20
20091;DHT22;10205;49.678;6.560;2023-08-01T11:51:30;25.80;59.50
20091;DHT22;10205;49.678;6.560;2023-08-01T11:54:07;25.80;59.20
20091;DHT22;10205;49.678;6.560;2023-08-01T11:56:36;25.90;59.00
20091;DHT22;10205;49.678;6.560;2023-08-01T11:59:11;25.90;59.20
20091;DHT22;10205;49.678;6.560;2023-08-01T12:01:40;26.00;58.70
20091;DHT22;10205;49.678;6.560;2023-08-01T12:04:08;26.10;58.70
20091;DHT22;10205;49.678;6.560;2023-08-01T12:06:36;26.10;58.90
20091;DHT22;10205;49.678;6.560;2023-08-01T12:09:10;26.20;58.80
20091;DHT22;10205;49.678;6.560;2023-08-01T12:11:38;26.20;58.50
20091;DHT22;10205;49.678;6.560;2023-08-01T12:14:08;26.30;58.30
20091;DHT22;10205;49.678;6.560;2023-08-01T12:16:38;26.40;58.30
20091;DHT22;10205;49.678;6.560;2023-08-01T12:19:08;26.40;58.00
20091;DHT22;10205;49.678;6.560;2023-08-01T12:21:36;26.50;57.50
20091;DHT22;10205;49.678;6.560;2023-08-01T12:24:04;26.60;57.70
20091;DHT22;10205;49.678;6.560;2023-08-01T12:26:33;26.60;57.70
20091;DHT22;10205;49.678;6.560;2023-08-01T12:29:01;26.70;56.60
20091;DHT22;10205;49.678;6.560;2023-08-01T12:31:29;26.80;57.40
20091;DHT22;10205;49.678;6.560;2023-08-01T12:33:57;26.90;57.00
20091;DHT22;10205;49.678;6.560;2023-08-01T12:36:24;26.90;56.90
20091;DHT22;10205;49.678;6.560;2023-08-01T12:38:52;26.90;56.90
20091;DHT22;10205;49.678;6.560;2023-08-01T12:41:19;27.00;57.00
20091;DHT22;10205;49.678;6.560;2023-08-01T12:43:49;27.00;56.70
20091;DHT22;10205;49.678;6.560;2023-08-01T12:46:17;27.10;55.90
20091;DHT22;10205;49.678;6.560;2023-08-01T12:48:45;27.20;55.70
20091;DHT22;10205;49.678;6.560;2023-08-01T12:51:13;27.20;55.80
20091;DHT22;10205;49.678;6.560;2023-08-01T12:53:41;27.20;55.80
20091;DHT22;10205;49.678;6.560;2023-08-01T12:56:09;27.30;55.80
20091;DHT22;10205;49.678;6.560;2023-08-01T12:58:37;27.30;55.80
20091;DHT22;10205;49.678;6.560;2023-08-01T13:01:06;27.40;56.00
20091;DHT22;10205;49.678;6.560;2023-08-01T13:03:34;27.40;55.60
20091;DHT22;10205;49.678;6.560;2023-08-01T13:06:01;27.50;55.60
20091;DHT22;10205;49.678;6.560;2023-08-01T13:08:30;27.50;54.80
20091;DHT22;10205;49.678;6.560;2023-08-01T13:10:57;27.50;54.90
20091;DHT22;10205;49.678;6.560;2023-08-01T13:13:26;27.50;53.70
20091;DHT22;10205;49.678;6.560;2023-08-01T13:15:55;27.50;54.40
20091;DHT22;10205;49.678;6.560;2023-08-01T13:18:24;27.50;54.40
20091;DHT22;10205;49.678;6.560;2023-08-01T13:20:51;27.50;54.10
20091;DHT22;10205;49.678;6.560;2023-08-01T13:23:19;27.60;54.20
20091;DHT22;10205;49.678;6.560;2023-08-01T13:25:48;27.60;54.40
20091;DHT22;10205;49.678;6.560;2023-08-01T13:28:16;27.70;53.40
20091;DHT22;10205;49.678;6.560;2023-08-01T13:30:43;27.70;53.90
20091;DHT22;10205;49.678;6.560;2023-08-01T13:33:11;27.70;53.30
20091;DHT22;10205;49.678;6.560;2023-08-01T13:35:40;27.80;52.40
20091;DHT22;10205;49.678;6.560;2023-08-01T13:38:07;27.70;51.30
20091;DHT22;10205;49.678;6.560;2023-08-01T13:40:35;27.70;51.50
20091;DHT22;10205;49.678;6.560;2023-08-01T13:43:03;27.60;51.40
20091;DHT22;10205;49.678;6.560;2023-08-01T13:45:30;27.50;51.60
20091;DHT22;10205;49.678;6.560;2023-08-01T13:47:58;27.40;52.00
20091;DHT22;10205;49.678;6.560;2023-08-01T13:50:28;27.20;52.70
20091;DHT22;10205;49.678;6.560;2023-08-01T13:52:58;27.00;53.70
20091;DHT22;10205;49.678;6.560;2023-08-01T13:55:26;26.90;54.30
20091;DHT22;10205;49.678;6.560;2023-08-01T13:57:53;26.80;54.90
20091;DHT22;10205;49.678;6.560;2023-08-01T14:00:21;26.70;55.20
20091;DHT22;10205;49.678;6.560;2023-08-01T14:02:49;26.70;55.20
20091;DHT22;10205;49.678;6.560;2023-08-01T14:05:18;26.70;56.00
20091;DHT22;10205;49.678;6.560;2023-08-01T14:07:45;26.70;55.40
20091;DHT22;10205;49.678;6.560;2023-08-01T14:10:14;26.80;55.70
20091;DHT22;10205;49.678;6.560;2023-08-01T14:12:42;26.80;55.80
20091;DHT22;10205;49.678;6.560;2023-08-01T14:15:09;26.90;55.90
20091;DHT22;10205;49.678;6.560;2023-08-01T14:17:38;27.00;56.00
20091;DHT22;10205;49.678;6.560;2023-08-01T14:20:07;27.10;55.90
20091;DHT22;10205;49.678;6.560;2023-08-01T14:22:35;27.10;55.70
20091;DHT22;10205;49.678;6.560;2023-08-01T14:25:04;27.20;55.70
20091;DHT22;10205;49.678;6.560;2023-08-01T14:27:34;27.30;55.50
20091;DHT22;10205;49.678;6.560;2023-08-01T14:30:02;27.50;55.30
20091;DHT22;10205;49.678;6.560;2023-08-01T14:32:32;27.50;55.00
20091;DHT22;10205;49.678;6.560;2023-08-01T14:35:00;27.70;55.00
20091;DHT22;10205;49.678;6.560;2023-08-01T14:37:28;27.70;54.90
20091;DHT22;10205;49.678;6.560;2023-08-01T14:39:56;27.80;54.70
20091;DHT22;10205;49.678;6.560;2023-08-01T14:42:24;27.90;54.50
20091;DHT22;10205;49.678;6.560;2023-08-01T14:44:53;28.00;54.50
20091;DHT22;10205;49.678;6.560;2023-08-01T14:47:23;28.00;53.30
20091;DHT22;10205;49.678;6.560;2023-08-01T14:49:50;28.10;52.70
20091;DHT22;10205;49.678;6.560;2023-08-01T14:52:18;28.10;53.00
20091;DHT22;10205;49.678;6.560;2023-08-01T14:54:45;28.10;53.30
20091;DHT22;10205;49.678;6.560;2023-08-01T14:57:14;28.10;53.30
20091;DHT22;10205;49.678;6.560;2023-08-01T14:59:42;28.10;53.20
20091;DHT22;10205;49.678;6.560;2023-08-01T15:02:12;28.10;53.20
20091;DHT22;10205;49.678;6.560;2023-08-01T15:04:40;28.20;53.30
20091;DHT22;10205;49.678;6.560;2023-08-01T15:07:09;28.20;53.40
20091;DHT22;10205;49.678;6.560;2023-08-01T15:09:36;28.20;52.40
20091;DHT22;10205;49.678;6.560;2023-08-01T15:12:04;28.20;53.20
20091;DHT22;10205;49.678;6.560;2023-08-01T15:14:32;28.20;53.40
20091;DHT22;10205;49.678;6.560;2023-08-01T15:17:00;28.20;53.30
20091;DHT22;10205;49.678;6.560;2023-08-01T15:19:29;28.20;53.40
20091;DHT22;10205;49.678;6.560;2023-08-01T15:21:57;28.20;53.40
20091;DHT22;10205;49.678;6.560;2023-08-01T15:24:24;28.20;53.40
20091;DHT22;10205;49.678;6.560;2023-08-01T15:26:52;28.20;53.40
20091;DHT22;10205;49.678;6.560;2023-08-01T15:29:20;28.20;53.40
20091;DHT22;10205;49.678;6.560;2023-08-01T15:31:47;28.20;53.40
20091;DHT22;10205;49.678;6.560;2023-08-01T15:34:15;28.20;52.70
20091;DHT22;10205;49.678;6.560;2023-08-01T15:36:46;28.20;52.90
20091;DHT22;10205;49.678;6.560;2023-08-01T15:39:14;28.20;52.90
20091;DHT22;10205;49.678;6.560;2023-08-01T15:41:42;28.20;53.20